createdAt,value
2022-08-25T00:00:58.891Z,6.10
2022-08-25T00:01:58.914Z,6.70
2022-08-25T00:02:58.898Z,6.60
2022-08-25T00:03:58.857Z,6.80
2022-08-25T00:04:58.921Z,6.60
2022-08-25T00:05:58.869Z,6.50
2022-08-25T00:07:02.984Z,6.40
2022-08-25T00:07:58.918Z,6.30
2022-08-25T00:08:58.801Z,6.40
2022-08-25T00:09:58.782Z,6.40
2022-08-25T00:11:03.204Z,6.20
2022-08-25T00:11:58.780Z,6.40
2022-08-25T00:12:58.733Z,6.10
2022-08-25T00:13:58.729Z,6.40
2022-08-25T00:14:58.707Z,6.70
2022-08-25T00:15:58.734Z,6.20
2022-08-25T00:16:58.703Z,6.30
2022-08-25T00:17:58.672Z,6.50
2022-08-25T00:18:58.657Z,6.50
2022-08-25T00:19:58.639Z,6.80
2022-08-25T00:20:58.634Z,6.60
2022-08-25T00:21:58.642Z,6.50
2022-08-25T00:22:58.596Z,6.50
2022-08-25T00:23:58.600Z,6.50
2022-08-25T00:24:58.579Z,6.50
2022-08-25T00:25:58.558Z,6.60
2022-08-25T00:26:58.575Z,7.20
2022-08-25T00:27:58.535Z,7.00
2022-08-25T00:29:01.808Z,7.30
2022-08-25T00:29:58.541Z,7.90
2022-08-25T00:30:58.556Z,7.60
2022-08-25T00:31:58.499Z,7.00
2022-08-25T00:32:58.455Z,7.00
2022-08-25T00:33:58.467Z,6.60
2022-08-25T00:34:58.472Z,6.70
2022-08-25T00:35:58.450Z,6.70
2022-08-25T00:36:58.442Z,6.90
2022-08-25T00:37:58.393Z,6.80
2022-08-25T00:38:58.381Z,6.60
2022-08-25T00:39:58.373Z,7.10
2022-08-25T00:40:58.374Z,6.50
2022-08-25T00:41:58.355Z,7.30
2022-08-25T00:42:58.319Z,7.20
2022-08-25T00:43:58.329Z,6.70
2022-08-25T00:44:58.295Z,7.50
2022-08-25T00:45:58.346Z,7.50
2022-08-25T00:46:58.271Z,7.20
2022-08-25T00:47:59.965Z,7.20
2022-08-25T00:48:58.264Z,6.90
2022-08-25T00:49:58.227Z,7.60
2022-08-25T00:50:58.218Z,7.30
2022-08-25T00:51:58.211Z,7.50
2022-08-25T00:52:58.188Z,7.20
2022-08-25T00:53:58.216Z,6.90
2022-08-25T00:55:00.170Z,7.30
2022-08-25T00:55:58.173Z,7.00
2022-08-25T00:56:58.175Z,6.20
2022-08-25T00:57:58.130Z,6.50
2022-08-25T00:58:58.118Z,6.90
2022-08-25T00:59:58.094Z,6.80
2022-08-25T01:00:58.116Z,6.60
2022-08-25T01:01:58.176Z,6.80
2022-08-25T01:02:58.190Z,7.10
2022-08-25T01:03:58.062Z,7.00
2022-08-25T01:04:58.022Z,6.70
2022-08-25T01:05:58.011Z,6.50
2022-08-25T01:06:57.998Z,6.60
2022-08-25T01:08:06.571Z,6.70
2022-08-25T01:08:57.967Z,6.60
2022-08-25T01:09:57.961Z,6.90
2022-08-25T01:10:57.943Z,6.80
2022-08-25T01:11:57.927Z,6.90
2022-08-25T01:12:57.936Z,7.30
2022-08-25T01:13:57.898Z,7.40
2022-08-25T01:14:57.889Z,7.40
2022-08-25T01:15:57.936Z,6.90
2022-08-25T01:16:57.880Z,7.30
2022-08-25T01:17:57.871Z,7.40
2022-08-25T01:18:57.828Z,7.20
2022-08-25T01:19:57.816Z,7.60
2022-08-25T01:20:57.812Z,7.20
2022-08-25T01:21:57.886Z,6.80
2022-08-25T01:22:57.809Z,7.10
2022-08-25T01:23:57.767Z,7.40
2022-08-25T01:24:57.751Z,7.40
2022-08-25T01:25:57.743Z,7.10
2022-08-25T01:26:57.763Z,7.20
2022-08-25T01:27:57.720Z,7.10
2022-08-25T01:28:57.691Z,6.50
2022-08-25T01:29:57.690Z,6.70
2022-08-25T01:30:57.729Z,6.40
2022-08-25T01:31:57.682Z,6.80
2022-08-25T01:32:57.645Z,7.20
2022-08-25T01:33:57.685Z,7.90
2022-08-25T01:34:57.641Z,9.50
2022-08-25T01:35:57.635Z,8.60
2022-08-25T01:36:57.584Z,8.20
2022-08-25T01:37:57.568Z,7.90
2022-08-25T01:38:57.658Z,7.20
2022-08-25T01:39:57.591Z,7.70
2022-08-25T01:40:57.521Z,7.30
2022-08-25T01:41:57.513Z,8.30
2022-08-25T01:42:57.496Z,8.20
2022-08-25T01:43:57.503Z,7.20
2022-08-25T01:44:57.519Z,7.00
2022-08-25T01:45:57.522Z,7.20
2022-08-25T01:46:57.443Z,7.80
2022-08-25T01:47:57.443Z,8.00
2022-08-25T01:48:57.424Z,7.80
2022-08-25T01:49:57.433Z,8.00
2022-08-25T01:50:57.416Z,7.50
2022-08-25T01:51:57.382Z,7.30
2022-08-25T01:52:57.394Z,6.90
2022-08-25T01:53:57.374Z,7.00
2022-08-25T01:54:57.379Z,7.70
2022-08-25T01:55:57.319Z,7.20
2022-08-25T01:56:57.319Z,7.50
2022-08-25T01:57:57.301Z,7.30
2022-08-25T01:58:57.294Z,7.10
2022-08-25T01:59:57.299Z,7.30
2022-08-25T02:00:57.364Z,7.50
2022-08-25T02:02:04.800Z,7.90
2022-08-25T02:02:57.309Z,7.80
2022-08-25T02:03:57.262Z,7.80
2022-08-25T02:04:57.196Z,7.70
2022-08-25T02:05:57.190Z,8.50
2022-08-25T02:06:57.175Z,8.10
2022-08-25T02:07:57.165Z,8.30
2022-08-25T02:08:57.185Z,8.40
2022-08-25T02:09:57.131Z,7.80
2022-08-25T02:10:57.134Z,7.30
2022-08-25T02:11:57.100Z,7.30
2022-08-25T02:12:57.125Z,7.40
2022-08-25T02:13:57.083Z,7.40
2022-08-25T02:14:57.062Z,7.30
2022-08-25T02:15:57.067Z,7.10
2022-08-25T02:16:57.119Z,7.30
2022-08-25T02:17:57.055Z,7.90
2022-08-25T02:18:57.025Z,7.90
2022-08-25T02:19:56.991Z,8.10
2022-08-25T02:20:56.974Z,8.10
2022-08-25T02:21:56.970Z,8.10
2022-08-25T02:22:57.255Z,9.00
2022-08-25T02:23:56.969Z,8.70
2022-08-25T02:24:56.948Z,8.80
2022-08-25T02:25:56.910Z,7.90
2022-08-25T02:26:56.947Z,8.00
2022-08-25T02:27:56.892Z,8.60
2022-08-25T02:28:56.888Z,8.50
2022-08-25T02:29:56.857Z,8.60
2022-08-25T02:31:01.439Z,8.30
2022-08-25T02:31:56.870Z,8.60
2022-08-25T02:32:56.845Z,8.20
2022-08-25T02:33:56.846Z,7.70
2022-08-25T02:34:56.830Z,7.90
2022-08-25T02:35:56.791Z,7.70
2022-08-25T02:36:56.769Z,8.40
2022-08-25T02:37:56.778Z,8.00
2022-08-25T02:38:56.732Z,8.50
2022-08-25T02:39:56.749Z,8.20
2022-08-25T02:40:56.702Z,7.60
2022-08-25T02:41:56.697Z,7.90
2022-08-25T02:42:56.707Z,7.80
2022-08-25T02:43:56.673Z,8.50
2022-08-25T02:44:56.654Z,8.00
2022-08-25T02:45:56.768Z,8.50
2022-08-25T02:46:56.648Z,8.40
2022-08-25T02:47:56.616Z,8.60
2022-08-25T02:48:56.624Z,8.70
2022-08-25T02:49:56.624Z,8.40
2022-08-25T02:50:56.568Z,8.10
2022-08-25T02:51:56.588Z,8.10
2022-08-25T02:52:56.548Z,8.30
2022-08-25T02:53:56.535Z,7.40
2022-08-25T02:54:56.570Z,7.30
2022-08-25T02:55:56.497Z,7.70
2022-08-25T02:56:56.502Z,8.50
2022-08-25T02:57:56.483Z,8.70
2022-08-25T02:58:56.497Z,8.50
2022-08-25T02:59:56.460Z,8.60
2022-08-25T03:00:56.511Z,8.20
2022-08-25T03:01:56.495Z,8.20
2022-08-25T03:02:56.407Z,9.30
2022-08-25T03:03:56.494Z,9.30
2022-08-25T03:04:56.469Z,9.00
2022-08-25T03:05:56.386Z,9.40
2022-08-25T03:06:56.368Z,8.20
2022-08-25T03:07:56.334Z,8.50
2022-08-25T03:08:56.322Z,8.30
2022-08-25T03:09:56.329Z,9.70
2022-08-25T03:10:56.353Z,9.10
2022-08-25T03:11:56.278Z,9.20
2022-08-25T03:12:56.274Z,8.80
2022-08-25T03:13:56.266Z,9.40
2022-08-25T03:14:56.285Z,8.90
2022-08-25T03:15:56.228Z,8.40
2022-08-25T03:16:56.259Z,8.70
2022-08-25T03:17:56.202Z,8.50
2022-08-25T03:18:56.187Z,9.40
2022-08-25T03:19:56.188Z,8.80
2022-08-25T03:20:56.185Z,8.70
2022-08-25T03:21:56.179Z,8.90
2022-08-25T03:22:56.127Z,8.70
2022-08-25T03:23:56.140Z,8.90
2022-08-25T03:24:56.143Z,8.30
2022-08-25T03:25:56.129Z,8.70
2022-08-25T03:26:56.113Z,8.80
2022-08-25T03:27:56.059Z,8.90
2022-08-25T03:28:56.074Z,9.30
2022-08-25T03:29:56.069Z,8.70
2022-08-25T03:30:56.324Z,9.00
2022-08-25T03:31:56.078Z,8.50
2022-08-25T03:32:55.992Z,8.10
2022-08-25T03:33:55.973Z,7.90
2022-08-25T03:34:56.023Z,8.60
2022-08-25T03:35:55.974Z,8.50
2022-08-25T03:36:55.970Z,8.50
2022-08-25T03:37:55.923Z,8.70
2022-08-25T03:38:55.921Z,8.50
2022-08-25T03:39:55.920Z,8.50
2022-08-25T03:40:55.897Z,9.30
2022-08-25T03:41:55.886Z,8.60
2022-08-25T03:42:55.858Z,8.80
2022-08-25T03:43:55.854Z,9.70
2022-08-25T03:44:55.853Z,8.80
2022-08-25T03:45:55.874Z,9.40
2022-08-25T03:46:55.848Z,9.00
2022-08-25T03:47:55.835Z,8.60
2022-08-25T03:48:55.833Z,8.40
2022-08-25T03:49:55.774Z,8.20
2022-08-25T03:50:55.754Z,8.80
2022-08-25T03:51:55.750Z,8.50
2022-08-25T03:52:55.731Z,8.70
2022-08-25T03:53:55.840Z,8.40
2022-08-25T03:54:55.701Z,8.50
2022-08-25T03:55:55.727Z,8.40
2022-08-25T03:56:55.671Z,8.80
2022-08-25T03:57:55.669Z,8.60
2022-08-25T03:58:55.653Z,8.80
2022-08-25T03:59:55.656Z,8.40
2022-08-25T04:00:55.686Z,9.00
2022-08-25T04:01:55.766Z,9.50
2022-08-25T04:02:55.576Z,8.90
2022-08-25T04:03:55.595Z,9.50
2022-08-25T04:04:55.629Z,8.40
2022-08-25T04:05:55.574Z,8.90
2022-08-25T04:06:55.532Z,8.40
2022-08-25T04:07:55.519Z,9.10
2022-08-25T04:08:55.504Z,8.80
2022-08-25T04:09:55.485Z,8.50
2022-08-25T04:10:55.483Z,9.00
2022-08-25T04:11:55.486Z,8.80
2022-08-25T04:12:55.464Z,8.50
2022-08-25T04:13:55.471Z,8.20
2022-08-25T04:14:55.420Z,8.20
2022-08-25T04:15:55.421Z,9.50
2022-08-25T04:16:55.434Z,9.90
2022-08-25T04:17:55.396Z,9.60
2022-08-25T04:18:55.403Z,9.50
2022-08-25T04:19:55.382Z,10.60
2022-08-25T04:20:55.344Z,10.40
2022-08-25T04:21:56.892Z,11.10
2022-08-25T04:22:55.324Z,9.10
2022-08-25T04:23:55.295Z,9.50
2022-08-25T04:24:55.312Z,8.90
2022-08-25T04:25:55.284Z,9.40
2022-08-25T04:26:55.255Z,9.50
2022-08-25T04:27:55.260Z,9.20
2022-08-25T04:28:55.226Z,10.10
2022-08-25T04:29:55.241Z,11.30
2022-08-25T04:30:55.253Z,12.20
2022-08-25T04:31:55.239Z,10.90
2022-08-25T04:32:55.184Z,11.00
2022-08-25T04:33:55.181Z,10.80
2022-08-25T04:34:55.153Z,10.60
2022-08-25T04:35:55.126Z,9.50
2022-08-25T04:36:55.143Z,10.50
2022-08-25T04:37:55.109Z,10.50
2022-08-25T04:38:55.138Z,10.50
2022-08-25T04:39:55.182Z,11.20
2022-08-25T04:40:55.057Z,10.70
2022-08-25T04:41:55.072Z,10.10
2022-08-25T04:42:55.034Z,10.20
2022-08-25T04:43:55.037Z,10.00
2022-08-25T04:44:55.015Z,10.80
2022-08-25T04:45:55.086Z,10.40
2022-08-25T04:46:54.974Z,10.60
2022-08-25T04:47:55.263Z,10.80
2022-08-25T04:48:54.963Z,11.60
2022-08-25T04:49:54.969Z,11.50
2022-08-25T04:50:54.946Z,10.90
2022-08-25T04:51:54.924Z,10.50
2022-08-25T04:52:54.894Z,10.20
2022-08-25T04:53:54.902Z,11.10
2022-08-25T04:54:54.910Z,10.60
2022-08-25T04:55:54.852Z,10.80
2022-08-25T04:56:58.309Z,10.50
2022-08-25T04:57:54.856Z,10.10
2022-08-25T04:58:54.826Z,10.40
2022-08-25T04:59:54.798Z,9.90
2022-08-25T05:00:54.849Z,9.90
2022-08-25T05:01:54.875Z,9.70
2022-08-25T05:02:54.802Z,10.60
2022-08-25T05:03:54.780Z,9.80
2022-08-25T05:04:54.723Z,10.20
2022-08-25T05:05:54.765Z,9.90
2022-08-25T05:06:54.754Z,11.30
2022-08-25T05:07:54.690Z,11.40
2022-08-25T05:08:54.698Z,12.70
2022-08-25T05:09:54.671Z,13.20
2022-08-25T05:10:54.660Z,12.40
2022-08-25T05:11:54.644Z,11.10
2022-08-25T05:12:54.644Z,10.10
2022-08-25T05:13:54.645Z,10.00
2022-08-25T05:14:54.619Z,9.60
2022-08-25T05:15:54.610Z,9.50
2022-08-25T05:16:54.571Z,9.30
2022-08-25T05:18:03.835Z,9.40
2022-08-25T05:18:54.550Z,9.60
2022-08-25T05:19:54.566Z,9.30
2022-08-25T05:20:54.525Z,9.90
2022-08-25T05:21:54.560Z,9.40
2022-08-25T05:22:54.496Z,9.60
2022-08-25T05:23:54.471Z,10.10
2022-08-25T05:24:54.469Z,11.20
2022-08-25T05:25:54.443Z,10.80
2022-08-25T05:26:54.461Z,9.90
2022-08-25T05:27:54.440Z,9.30
2022-08-25T05:28:54.430Z,9.60
2022-08-25T05:29:54.400Z,10.00
2022-08-25T05:30:54.401Z,9.60
2022-08-25T05:31:54.452Z,9.50
2022-08-25T05:32:54.427Z,10.40
2022-08-25T05:33:54.337Z,10.50
2022-08-25T05:34:54.353Z,11.00
2022-08-25T05:35:54.299Z,10.70
2022-08-25T05:36:54.326Z,10.90
2022-08-25T05:37:54.289Z,10.60
2022-08-25T05:38:54.277Z,9.50
2022-08-25T05:39:54.310Z,10.00
2022-08-25T05:40:54.244Z,11.10
2022-08-25T05:41:54.264Z,10.30
2022-08-25T05:42:54.215Z,10.50
2022-08-25T05:43:54.303Z,9.90
2022-08-25T05:44:54.186Z,9.80
2022-08-25T05:45:54.205Z,9.60
2022-08-25T05:46:54.169Z,9.90
2022-08-25T05:47:54.159Z,9.60
2022-08-25T05:48:54.145Z,9.20
2022-08-25T05:49:54.133Z,9.50
2022-08-25T05:50:54.141Z,9.50
2022-08-25T05:51:54.137Z,9.40
2022-08-25T05:52:54.079Z,10.10
2022-08-25T05:53:54.112Z,9.20
2022-08-25T05:54:54.052Z,9.50
2022-08-25T05:55:54.029Z,9.30
2022-08-25T05:56:54.059Z,9.30
2022-08-25T05:57:54.006Z,8.80
2022-08-25T05:58:54.015Z,8.90
2022-08-25T05:59:53.977Z,9.30
2022-08-25T06:00:54.068Z,8.80
2022-08-25T06:01:53.973Z,8.50
2022-08-25T06:02:53.943Z,8.80
2022-08-25T06:03:54.117Z,8.90
2022-08-25T06:04:53.918Z,8.60
2022-08-25T06:05:53.912Z,8.70
2022-08-25T06:06:53.923Z,8.20
2022-08-25T06:07:53.871Z,7.90
2022-08-25T06:08:53.897Z,8.20
2022-08-25T06:09:53.902Z,8.10
2022-08-25T06:10:53.872Z,7.80
2022-08-25T06:11:55.093Z,7.50
2022-08-25T06:12:53.825Z,7.70
2022-08-25T06:13:53.819Z,7.20
2022-08-25T06:14:53.776Z,7.50
2022-08-25T06:15:53.846Z,7.50
2022-08-25T06:16:53.757Z,8.20
2022-08-25T06:17:56.756Z,7.40
2022-08-25T06:18:53.727Z,7.00
2022-08-25T06:19:53.794Z,6.90
2022-08-25T06:20:53.695Z,6.90
2022-08-25T06:21:53.697Z,7.00
2022-08-25T06:22:53.659Z,7.20
2022-08-25T06:23:53.655Z,7.30
2022-08-25T06:24:53.671Z,6.50
2022-08-25T06:25:53.617Z,6.70
2022-08-25T06:26:53.613Z,6.70
2022-08-25T06:27:53.604Z,6.40
2022-08-25T06:28:53.629Z,6.40
2022-08-25T06:29:53.596Z,5.90
2022-08-25T06:30:53.566Z,6.10
2022-08-25T06:31:53.655Z,5.50
2022-08-25T06:32:53.538Z,5.80
2022-08-25T06:33:53.529Z,5.60
2022-08-25T06:34:53.533Z,6.30
2022-08-25T06:35:53.528Z,5.90
2022-08-25T06:36:53.481Z,5.70
2022-08-25T06:37:53.462Z,5.70
2022-08-25T06:38:53.458Z,5.60
2022-08-25T06:39:53.582Z,5.70
2022-08-25T06:40:53.433Z,5.70
2022-08-25T06:41:53.413Z,5.60
2022-08-25T06:42:53.409Z,5.50
2022-08-25T06:43:56.018Z,5.30
2022-08-25T06:44:53.393Z,6.20
2022-08-25T06:45:53.380Z,6.00
2022-08-25T06:46:53.354Z,5.30
2022-08-25T06:47:53.332Z,5.40
2022-08-25T06:48:53.349Z,5.60
2022-08-25T06:49:53.303Z,5.90
2022-08-25T06:50:53.293Z,5.50
2022-08-25T06:51:53.281Z,5.70
2022-08-25T06:52:53.260Z,5.10
2022-08-25T06:53:53.279Z,5.20
2022-08-25T06:54:53.241Z,5.10
2022-08-25T06:55:53.248Z,5.20
2022-08-25T06:56:53.257Z,5.00
2022-08-25T06:57:53.199Z,5.20
2022-08-25T06:58:53.195Z,4.80
2022-08-25T06:59:53.587Z,5.10
2022-08-25T07:00:53.199Z,5.70
2022-08-25T07:01:53.311Z,5.10
2022-08-25T07:02:53.543Z,5.40
2022-08-25T07:03:53.137Z,5.10
2022-08-25T07:04:53.127Z,5.40
2022-08-25T07:05:53.086Z,5.30
2022-08-25T07:06:53.089Z,5.30
2022-08-25T07:07:53.062Z,4.90
2022-08-25T07:08:53.058Z,5.20
2022-08-25T07:09:53.068Z,5.00
2022-08-25T07:10:53.050Z,4.80
2022-08-25T07:11:53.094Z,4.50
2022-08-25T07:12:53.030Z,5.20
2022-08-25T07:13:52.995Z,4.40
2022-08-25T07:15:10.032Z,4.90
2022-08-25T07:15:52.972Z,4.60
2022-08-25T07:16:52.966Z,5.10
2022-08-25T07:17:52.930Z,5.40
2022-08-25T07:18:52.944Z,4.60
2022-08-25T07:19:52.944Z,4.60
2022-08-25T07:20:52.919Z,4.70
2022-08-25T07:21:52.928Z,4.80
2022-08-25T07:22:52.871Z,5.30
2022-08-25T07:23:52.866Z,4.80
2022-08-25T07:24:52.858Z,4.40
2022-08-25T07:25:52.827Z,4.80
2022-08-25T07:26:52.800Z,4.70
2022-08-25T07:27:56.985Z,4.60
2022-08-25T07:28:52.809Z,4.60
2022-08-25T07:29:52.798Z,4.70
2022-08-25T07:30:52.751Z,4.90
2022-08-25T07:31:52.780Z,4.50
2022-08-25T07:32:55.068Z,4.40
2022-08-25T07:33:52.702Z,4.70
2022-08-25T07:34:52.909Z,4.40
2022-08-25T07:35:52.688Z,4.50
2022-08-25T07:36:52.697Z,4.40
2022-08-25T07:37:52.646Z,4.40
2022-08-25T07:38:52.631Z,4.40
2022-08-25T07:39:52.724Z,4.50
2022-08-25T07:40:53.392Z,4.30
2022-08-25T07:41:52.756Z,4.60
2022-08-25T07:42:52.610Z,4.70
2022-08-25T07:43:52.568Z,4.50
2022-08-25T07:44:52.546Z,4.30
2022-08-25T07:45:52.544Z,5.00
2022-08-25T07:51:29.772Z,4.90
2022-08-25T07:51:34.887Z,4.80
2022-08-25T07:52:34.870Z,4.60
2022-08-25T07:53:34.888Z,4.20
2022-08-25T07:54:35.465Z,4.30
2022-08-25T07:55:34.819Z,4.10
2022-08-25T07:56:34.817Z,4.00
2022-08-25T07:57:34.810Z,4.30
2022-08-25T07:58:34.823Z,4.20
2022-08-25T07:59:39.231Z,4.40
2022-08-25T08:00:35.877Z,4.50
2022-08-25T08:01:34.753Z,4.60
2022-08-25T08:02:34.778Z,4.20
2022-08-25T08:03:50.105Z,4.20
2022-08-25T08:04:34.712Z,4.50
2022-08-25T08:05:34.681Z,4.50
2022-08-25T08:06:34.689Z,4.10
2022-08-25T08:07:43.346Z,4.10
2022-08-25T08:08:34.689Z,4.30
2022-08-25T08:09:34.656Z,4.20
2022-08-25T08:10:53.916Z,4.60
2022-08-25T08:11:34.631Z,4.40
2022-08-25T08:12:34.592Z,4.30
2022-08-25T08:13:38.046Z,4.20
2022-08-25T08:14:34.614Z,4.30
2022-08-25T08:15:34.545Z,4.20
2022-08-25T08:16:34.643Z,4.40
2022-08-25T08:17:34.515Z,4.60
2022-08-25T08:18:34.506Z,4.10
2022-08-25T08:19:34.529Z,4.10
2022-08-25T08:20:42.765Z,4.30
2022-08-25T08:21:34.475Z,4.20
2022-08-25T08:22:34.468Z,4.20
2022-08-25T08:23:34.488Z,4.50
2022-08-25T08:24:44.281Z,4.00
2022-08-25T08:25:34.521Z,4.20
2022-08-25T08:26:55.510Z,4.20
2022-08-25T08:27:34.395Z,4.20
2022-08-25T08:28:34.368Z,5.40
2022-08-25T08:29:34.400Z,4.30
2022-08-25T08:30:34.411Z,5.30
2022-08-25T08:31:34.434Z,4.40
2022-08-25T08:32:53.268Z,4.90
2022-08-25T08:33:34.314Z,6.90
2022-08-25T08:34:34.302Z,5.10
2022-08-25T08:35:34.372Z,6.20
2022-08-25T08:36:34.306Z,4.40
2022-08-25T08:37:34.282Z,4.50
2022-08-25T08:38:34.251Z,4.00
2022-08-25T08:39:34.253Z,4.10
2022-08-25T08:40:34.268Z,3.90
2022-08-25T08:41:54.291Z,3.80
2022-08-25T08:42:34.178Z,4.00
2022-08-25T08:43:34.167Z,4.00
2022-08-25T08:44:34.942Z,4.00
2022-08-25T08:45:40.266Z,4.30
2022-08-25T08:46:34.160Z,4.10
2022-08-25T08:47:34.142Z,4.00
2022-08-25T08:48:34.098Z,4.30
2022-08-25T08:49:34.161Z,3.90
2022-08-25T08:50:34.228Z,4.50
2022-08-25T08:51:34.075Z,4.10
2022-08-25T08:52:34.095Z,4.00
2022-08-25T08:53:34.444Z,4.00
2022-08-25T08:54:34.335Z,4.30
2022-08-25T08:55:34.100Z,4.20
2022-08-25T08:56:33.987Z,3.90
2022-08-25T08:57:33.981Z,4.10
2022-08-25T08:58:34.026Z,4.00
2022-08-25T08:59:33.990Z,3.90
2022-08-25T09:00:33.935Z,3.90
2022-08-25T09:01:33.970Z,4.20
2022-08-25T09:02:39.514Z,4.00
2022-08-25T09:03:33.991Z,3.80
2022-08-25T09:04:33.886Z,4.10
2022-08-25T09:05:37.239Z,4.30
2022-08-25T09:06:34.183Z,4.00
2022-08-25T09:07:33.935Z,3.90
2022-08-25T09:08:33.838Z,3.60
2022-08-25T09:09:35.980Z,3.60
2022-08-25T09:10:33.822Z,4.10
2022-08-25T09:11:33.788Z,4.20
2022-08-25T09:12:33.794Z,3.60
2022-08-25T09:13:33.780Z,4.30
2022-08-25T09:14:33.751Z,3.80
2022-08-25T09:15:41.149Z,4.00
2022-08-25T09:16:34.415Z,3.90
2022-08-25T09:17:33.703Z,3.90
2022-08-25T09:18:35.068Z,3.70
2022-08-25T09:19:34.263Z,3.90
2022-08-25T09:20:34.320Z,4.00
2022-08-25T09:21:33.642Z,3.80
2022-08-25T09:22:36.319Z,4.30
2022-08-25T09:23:33.656Z,3.70
2022-08-25T09:24:33.658Z,3.90
2022-08-25T09:25:53.165Z,3.90
2022-08-25T09:26:33.583Z,4.00
2022-08-25T09:27:33.574Z,3.90
2022-08-25T09:28:33.561Z,3.80
2022-08-25T09:29:33.585Z,3.90
2022-08-25T09:30:33.557Z,3.60
2022-08-25T09:31:33.582Z,3.80
2022-08-25T09:32:33.535Z,4.00
2022-08-25T09:33:33.512Z,3.90
2022-08-25T09:34:33.471Z,3.80
2022-08-25T09:35:33.476Z,3.80
2022-08-25T09:36:37.517Z,3.90
2022-08-25T09:37:33.437Z,3.70
2022-08-25T09:38:33.422Z,3.60
2022-08-25T09:39:33.400Z,3.80
2022-08-25T09:40:33.441Z,3.70
2022-08-25T09:41:33.405Z,3.90
2022-08-25T09:42:33.376Z,4.00
2022-08-25T09:43:33.354Z,3.90
2022-08-25T09:44:33.333Z,4.00
2022-08-25T09:45:33.321Z,3.70
2022-08-25T09:46:33.377Z,3.70
2022-08-25T09:47:33.302Z,3.90
2022-08-25T09:48:37.727Z,3.40
2022-08-25T09:49:33.269Z,3.70
2022-08-25T09:50:34.886Z,3.80
2022-08-25T09:51:37.863Z,4.10
2022-08-25T09:52:33.276Z,3.80
2022-08-25T09:53:33.670Z,3.80
2022-08-25T09:54:37.752Z,3.60
2022-08-25T09:55:33.213Z,3.50
2022-08-25T09:56:33.177Z,3.80
2022-08-25T09:57:33.160Z,3.60
2022-08-25T09:58:33.142Z,3.70
2022-08-25T09:59:35.164Z,3.70
2022-08-25T10:00:33.125Z,3.30
2022-08-25T10:01:34.764Z,3.40
2022-08-25T10:02:33.119Z,3.60
2022-08-25T10:03:36.565Z,3.60
2022-08-25T10:04:33.060Z,3.50
2022-08-25T10:05:33.109Z,3.80
2022-08-25T10:06:33.066Z,3.70
2022-08-25T10:07:33.030Z,3.60
2022-08-25T10:08:33.044Z,3.70
2022-08-25T10:09:33.005Z,3.50
2022-08-25T10:10:33.017Z,3.50
2022-08-25T10:11:33.000Z,3.40
2022-08-25T10:12:32.971Z,3.50
2022-08-25T10:13:32.944Z,3.70
2022-08-25T10:14:32.931Z,3.50
2022-08-25T10:15:32.991Z,3.80
2022-08-25T10:16:35.791Z,3.70
2022-08-25T10:17:33.678Z,4.10
2022-08-25T10:18:32.887Z,3.70
2022-08-25T10:19:32.875Z,4.00
2022-08-25T10:20:35.219Z,3.60
2022-08-25T10:21:32.862Z,4.20
2022-08-25T10:22:32.849Z,3.80
2022-08-25T10:23:32.844Z,3.50
2022-08-25T10:24:32.800Z,3.50
2022-08-25T10:25:32.814Z,3.90
2022-08-25T10:26:34.885Z,4.10
2022-08-25T10:27:32.798Z,3.70
2022-08-25T10:28:32.777Z,3.60
2022-08-25T10:29:32.814Z,4.10
2022-08-25T10:30:32.876Z,4.30
2022-08-25T10:31:33.119Z,4.00
2022-08-25T10:32:32.716Z,3.90
2022-08-25T10:33:32.683Z,4.00
2022-08-25T10:34:32.668Z,4.80
2022-08-25T10:35:32.706Z,4.90
2022-08-25T10:36:32.708Z,4.50
2022-08-25T10:37:33.296Z,4.00
2022-08-25T10:38:36.165Z,3.90
2022-08-25T10:39:36.209Z,3.90
2022-08-25T10:40:32.633Z,3.70
2022-08-25T10:41:32.574Z,3.70
2022-08-25T10:42:32.582Z,3.60
2022-08-25T10:43:32.547Z,3.80
2022-08-25T10:44:32.534Z,3.60
2022-08-25T10:45:32.516Z,3.40
2022-08-25T10:46:32.542Z,3.60
2022-08-25T10:47:32.500Z,3.30
2022-08-25T10:48:32.525Z,3.60
2022-08-25T10:49:32.470Z,3.50
2022-08-25T10:50:32.477Z,3.60
2022-08-25T10:51:32.477Z,3.60
2022-08-25T10:52:32.431Z,3.40
2022-08-25T10:53:32.416Z,3.30
2022-08-25T10:54:32.423Z,3.50
2022-08-25T10:55:32.400Z,3.40
2022-08-25T10:56:32.412Z,3.40
2022-08-25T10:57:32.369Z,3.50
2022-08-25T10:58:32.341Z,3.50
2022-08-25T10:59:32.336Z,3.50
2022-08-25T11:00:33.328Z,3.40
2022-08-25T11:01:37.909Z,4.00
2022-08-25T11:02:32.358Z,4.30
2022-08-25T11:03:35.205Z,3.70
2022-08-25T11:04:32.298Z,3.40
2022-08-25T11:05:32.344Z,4.00
2022-08-25T11:06:32.254Z,3.60
2022-08-25T11:07:32.227Z,5.20
2022-08-25T11:08:32.253Z,3.30
2022-08-25T11:09:32.199Z,5.50
2022-08-25T11:10:32.308Z,3.30
2022-08-25T11:11:32.182Z,3.30
2022-08-25T11:12:32.187Z,3.20
2022-08-25T11:13:32.193Z,3.00
2022-08-25T11:14:34.561Z,2.80
2022-08-25T11:15:32.178Z,2.70
2022-08-25T11:16:32.239Z,3.00
2022-08-25T11:17:32.715Z,3.20
2022-08-25T11:18:32.093Z,2.90
2022-08-25T11:19:32.771Z,3.20
2022-08-25T11:20:32.133Z,3.00
2022-08-25T11:21:32.079Z,2.60
2022-08-25T11:22:32.190Z,2.90
2022-08-25T11:23:32.042Z,2.80
2022-08-25T11:24:32.040Z,2.80
2022-08-25T11:25:32.001Z,2.80
2022-08-25T11:26:36.117Z,2.80
2022-08-25T11:27:31.994Z,3.00
2022-08-25T11:28:31.962Z,2.70
2022-08-25T11:29:32.001Z,2.80
2022-08-25T11:30:31.935Z,3.00
2022-08-25T11:31:31.942Z,2.80
2022-08-25T11:32:31.914Z,3.10
2022-08-25T11:33:31.916Z,2.90
2022-08-25T11:34:31.887Z,2.90
2022-08-25T11:35:31.896Z,2.70
2022-08-25T11:36:31.853Z,2.80
2022-08-25T11:37:31.848Z,2.90
2022-08-25T11:38:31.825Z,2.90
2022-08-25T11:39:34.455Z,2.70
2022-08-25T11:40:31.855Z,3.20
2022-08-25T11:41:31.871Z,2.90
2022-08-25T11:42:31.783Z,3.00
2022-08-25T11:43:35.616Z,3.20
2022-08-25T11:44:31.752Z,3.00
2022-08-25T11:45:31.765Z,2.90
2022-08-25T11:46:31.739Z,2.80
2022-08-25T11:47:31.708Z,3.00
2022-08-25T11:48:31.708Z,2.90
2022-08-25T11:49:31.691Z,3.00
2022-08-25T11:50:31.715Z,2.80
2022-08-25T11:51:33.610Z,2.90
2022-08-25T11:52:31.673Z,2.90
2022-08-25T11:53:31.641Z,3.00
2022-08-25T11:54:31.617Z,3.10
2022-08-25T11:55:31.635Z,3.10
2022-08-25T11:56:31.608Z,3.00
2022-08-25T11:57:31.582Z,3.10
2022-08-25T11:58:31.604Z,3.00
2022-08-25T11:59:31.599Z,3.00
2022-08-25T12:00:31.554Z,2.70
2022-08-25T12:01:31.548Z,3.10
2022-08-25T12:02:31.544Z,3.30
2022-08-25T12:03:31.525Z,3.20
2022-08-25T12:04:31.638Z,3.30
2022-08-25T12:05:31.568Z,3.20
2022-08-25T12:06:31.484Z,3.00
2022-08-25T12:07:31.449Z,3.10
2022-08-25T12:08:31.465Z,3.20
2022-08-25T12:09:31.420Z,3.00
2022-08-25T12:10:31.418Z,3.30
2022-08-25T12:11:31.423Z,3.30
2022-08-25T12:12:31.421Z,3.20
2022-08-25T12:13:31.417Z,3.40
2022-08-25T12:14:31.396Z,3.20
2022-08-25T12:15:31.354Z,3.50
2022-08-25T12:16:31.433Z,3.20
2022-08-25T12:17:31.368Z,3.40
2022-08-25T12:18:31.322Z,3.30
2022-08-25T12:19:31.628Z,3.40
2022-08-25T12:20:31.287Z,4.80
2022-08-25T12:21:31.277Z,4.60
2022-08-25T12:22:31.307Z,3.80
2022-08-25T12:23:31.261Z,3.30
2022-08-25T12:24:31.239Z,3.40
2022-08-25T12:25:31.237Z,3.70
2022-08-25T12:26:31.236Z,3.40
2022-08-25T12:27:33.834Z,3.50
2022-08-25T12:28:35.087Z,3.70
2022-08-25T12:29:31.213Z,3.40
2022-08-25T12:30:31.205Z,3.40
2022-08-25T12:31:31.167Z,3.40
2022-08-25T12:32:31.144Z,3.70
2022-08-25T12:33:31.183Z,3.60
2022-08-25T12:34:31.123Z,4.00
2022-08-25T12:35:31.100Z,3.80
2022-08-25T12:36:31.105Z,3.50
2022-08-25T12:37:31.114Z,4.30
2022-08-25T12:38:31.065Z,4.00
2022-08-25T12:39:31.064Z,4.00
2022-08-25T12:40:31.121Z,3.90
2022-08-25T12:41:31.283Z,3.80
2022-08-25T12:42:31.048Z,4.00
2022-08-25T12:43:33.464Z,4.20
2022-08-25T12:44:31.057Z,4.30
2022-08-25T12:45:30.997Z,4.20
2022-08-25T12:46:30.974Z,4.30
2022-08-25T12:47:30.959Z,4.20
2022-08-25T12:48:30.945Z,3.90
2022-08-25T12:49:30.959Z,4.10
2022-08-25T12:50:30.926Z,3.90
2022-08-25T12:51:30.911Z,4.70
2022-08-25T12:52:30.901Z,4.10
2022-08-25T12:53:30.908Z,4.60
2022-08-25T12:54:30.874Z,4.60
2022-08-25T12:55:30.861Z,4.80
2022-08-25T12:56:30.886Z,5.00
2022-08-25T12:57:30.836Z,4.60
2022-08-25T12:58:49.605Z,4.50
2022-08-25T12:59:30.846Z,4.10
2022-08-25T13:00:30.797Z,4.40
2022-08-25T13:01:36.356Z,4.40
2022-08-25T13:02:31.021Z,4.30
2022-08-25T13:03:30.978Z,4.30
2022-08-25T13:04:30.779Z,4.30
2022-08-25T13:05:33.690Z,4.30
2022-08-25T13:06:30.740Z,4.50
2022-08-25T13:07:31.487Z,4.30
2022-08-25T13:08:33.994Z,4.20
2022-08-25T13:09:30.699Z,4.40
2022-08-25T13:10:30.680Z,4.20
2022-08-25T13:11:30.699Z,4.60
2022-08-25T13:12:30.694Z,4.50
2022-08-25T13:13:30.626Z,4.40
2022-08-25T13:15:30.631Z,4.30
2022-08-25T13:16:30.693Z,4.40
2022-08-25T13:17:30.593Z,4.70
2022-08-25T13:18:30.570Z,4.20
2022-08-25T13:19:34.796Z,4.30
2022-08-25T13:20:30.580Z,4.90
2022-08-25T13:21:30.537Z,4.80